Wardensville, West Virginia
Current Conditions -  °F | °C
As of 10:15 AM on Monday 24 Nov 2014 (Local Time) from KFRR Reporting Station
Clear Clear  
Wind Chill: 64°   Ceiling: Unl
Heat Index: 64°   Visibility: 10mi
Dew Point: 55°   Wind: 6mph
Humidity: 73%   Direction: 190°S
Pressure: 29.63"   Gusts: NA
Location:  39.08°N, 78.6°W
Report Text: KFRR 241515Z AUTO 19005KT 10SM CLR 18/13 A2963 RMK AO1
Loading
Personal Weather Stations






























Interactive Weather Map New forecast layout! Learn more

10-Day Weather Forecast

Advertisements
Track Severe Weather on mobile